createdAt,value
2023-01-20T00:01:48.380Z,8.51
2023-01-20T00:04:15.576Z,8.75
2023-01-20T00:06:42.589Z,8.61
2023-01-20T00:09:14.293Z,8.29
2023-01-20T00:11:41.299Z,7.91
2023-01-20T00:14:09.046Z,7.72
2023-01-20T00:16:36.443Z,8.20
2023-01-20T00:19:03.885Z,8.47
2023-01-20T00:21:30.797Z,8.39
2023-01-20T00:23:57.719Z,8.19
2023-01-20T00:26:25.025Z,7.96
2023-01-20T00:28:55.522Z,7.82
2023-01-20T00:31:24.639Z,8.39
2023-01-20T00:33:52.799Z,8.78
2023-01-20T00:36:20.720Z,8.75
2023-01-20T00:38:47.827Z,8.41
2023-01-20T00:41:15.274Z,8.08
2023-01-20T00:44:00.766Z,7.83
2023-01-20T00:46:28.009Z,8.18
2023-01-20T00:48:55.158Z,8.60
2023-01-20T00:51:22.062Z,8.59
2023-01-20T00:53:49.051Z,8.38
2023-01-20T00:56:15.967Z,8.12
2023-01-20T00:58:44.507Z,7.86
2023-01-20T01:01:29.927Z,7.66
2023-01-20T01:03:56.913Z,8.22
2023-01-20T01:06:23.952Z,8.74
2023-01-20T01:08:51.099Z,8.71
2023-01-20T01:11:18.137Z,8.49
2023-01-20T01:13:45.020Z,8.20
2023-01-20T01:16:13.384Z,7.96
2023-01-20T01:18:41.163Z,7.77
2023-01-20T01:21:13.250Z,7.62
2023-01-20T01:23:40.366Z,8.02
2023-01-20T01:26:07.445Z,8.50
2023-01-20T01:28:34.456Z,8.56
2023-01-20T01:31:05.432Z,8.41
2023-01-20T01:33:32.943Z,8.14
2023-01-20T01:36:01.217Z,7.87
2023-01-20T01:38:28.525Z,7.57
2023-01-20T01:40:55.944Z,7.93
2023-01-20T01:43:24.292Z,8.46
2023-01-20T01:45:51.142Z,8.53
2023-01-20T01:48:19.107Z,8.35
2023-01-20T01:50:53.827Z,8.10
2023-01-20T01:53:20.831Z,7.81
2023-01-20T01:55:56.742Z,7.46
2023-01-20T01:58:26.840Z,7.22
2023-01-20T02:00:53.865Z,7.69
2023-01-20T02:03:20.967Z,8.22
2023-01-20T02:05:49.216Z,8.23
2023-01-20T02:08:16.213Z,8.00
2023-01-20T02:10:43.215Z,7.68
2023-01-20T02:13:10.117Z,7.33
2023-01-20T02:15:44.816Z,7.02
2023-01-20T02:18:14.795Z,7.30
2023-01-20T02:21:03.776Z,7.72
2023-01-20T02:24:09.241Z,7.73
2023-01-20T02:26:57.641Z,7.43
2023-01-20T02:29:27.677Z,7.07
2023-01-20T02:32:06.425Z,6.85
2023-01-20T02:34:40.407Z,6.67
2023-01-20T02:37:33.472Z,7.19
2023-01-20T02:40:22.470Z,7.73
2023-01-20T02:43:00.567Z,7.65
2023-01-20T02:46:03.481Z,7.38
2023-01-20T02:48:35.687Z,7.04
2023-01-20T02:51:09.941Z,6.72
2023-01-20T02:53:40.947Z,6.49
2023-01-20T02:56:07.983Z,6.92
2023-01-20T02:58:40.332Z,7.39
2023-01-20T03:01:13.350Z,7.37
2023-01-20T03:03:42.584Z,7.05
2023-01-20T03:06:14.702Z,6.78
2023-01-20T03:08:41.773Z,6.50
2023-01-20T03:11:09.137Z,6.29
2023-01-20T03:13:46.650Z,6.73
2023-01-20T03:16:19.227Z,7.26
2023-01-20T03:18:46.447Z,7.29
2023-01-20T03:21:13.407Z,7.04
2023-01-20T03:23:42.987Z,6.66
2023-01-20T03:26:11.899Z,6.34
2023-01-20T03:28:38.919Z,6.17
2023-01-20T03:31:12.645Z,6.59
2023-01-20T03:33:39.604Z,7.06
2023-01-20T03:36:07.211Z,7.02
2023-01-20T03:38:34.109Z,6.78
2023-01-20T03:41:04.324Z,6.55
2023-01-20T03:43:59.103Z,6.30
2023-01-20T03:46:29.020Z,6.04
2023-01-20T03:49:16.058Z,5.90
2023-01-20T03:51:55.492Z,6.50
2023-01-20T03:54:24.479Z,7.04
2023-01-20T03:57:04.254Z,6.99
2023-01-20T03:59:33.871Z,6.71
2023-01-20T04:02:05.375Z,6.44
2023-01-20T04:04:33.833Z,6.18
2023-01-20T04:07:00.739Z,5.92
2023-01-20T04:09:29.676Z,6.08
2023-01-20T04:11:56.585Z,6.35
2023-01-20T04:14:23.677Z,6.44
2023-01-20T04:16:56.765Z,6.25
2023-01-20T04:19:24.423Z,5.91
2023-01-20T04:22:16.654Z,5.75
2023-01-20T04:25:00.219Z,5.66
2023-01-20T04:27:27.241Z,6.34
2023-01-20T04:29:54.226Z,6.86
2023-01-20T04:32:21.138Z,6.88
2023-01-20T04:34:51.521Z,6.70
2023-01-20T04:37:18.429Z,6.46
2023-01-20T04:39:45.317Z,6.23
2023-01-20T04:42:12.242Z,5.97
2023-01-20T04:44:39.157Z,5.77
2023-01-20T04:47:06.115Z,6.16
2023-01-20T04:49:34.754Z,6.64
2023-01-20T04:52:01.603Z,6.62
2023-01-20T04:54:28.790Z,6.45
2023-01-20T04:56:55.777Z,6.26
2023-01-20T04:59:22.784Z,5.92
2023-01-20T05:01:49.773Z,5.61
2023-01-20T05:04:16.796Z,5.32
2023-01-20T05:06:45.115Z,5.51
2023-01-20T05:09:13.577Z,5.76
2023-01-20T05:11:40.638Z,5.63
2023-01-20T05:14:07.590Z,5.46
2023-01-20T05:16:35.122Z,5.28
2023-01-20T05:19:02.086Z,5.05
2023-01-20T05:21:28.940Z,4.95
2023-01-20T05:23:56.724Z,5.33
2023-01-20T05:26:24.353Z,5.44
2023-01-20T05:28:51.340Z,5.08
2023-01-20T05:31:18.378Z,4.86
2023-01-20T05:33:45.484Z,4.80
2023-01-20T05:36:12.475Z,4.75
2023-01-20T05:38:39.602Z,4.96
2023-01-20T05:41:07.662Z,5.05
2023-01-20T05:43:34.836Z,5.04
2023-01-20T05:46:02.074Z,4.80
2023-01-20T05:48:29.331Z,4.42
2023-01-20T05:50:56.371Z,4.32
2023-01-20T05:53:23.365Z,4.70
2023-01-20T05:55:50.567Z,4.63
2023-01-20T05:58:17.504Z,4.34
2023-01-20T06:00:44.453Z,4.04
2023-01-20T06:03:11.491Z,3.95
2023-01-20T06:05:38.460Z,4.35
2023-01-20T06:08:06.209Z,4.52
2023-01-20T06:10:33.212Z,4.49
2023-01-20T06:13:00.129Z,4.22
2023-01-20T06:15:27.012Z,3.88
2023-01-20T06:17:55.141Z,3.75
2023-01-20T06:20:22.162Z,4.00
2023-01-20T06:22:49.140Z,4.20
2023-01-20T06:25:16.294Z,4.09
2023-01-20T06:27:43.472Z,3.96
2023-01-20T06:30:11.413Z,3.83
2023-01-20T06:32:38.312Z,3.62
2023-01-20T06:35:06.045Z,3.84
2023-01-20T06:37:33.035Z,4.15
2023-01-20T06:39:59.949Z,4.09
2023-01-20T06:42:26.912Z,3.73
2023-01-20T06:44:53.960Z,3.48
2023-01-20T06:47:20.952Z,3.38
2023-01-20T06:49:48.259Z,3.75
2023-01-20T06:52:15.310Z,3.76
2023-01-20T06:54:42.357Z,3.73
2023-01-20T06:57:09.407Z,3.42
2023-01-20T06:59:36.463Z,3.22
2023-01-20T07:02:04.188Z,3.12
2023-01-20T07:04:31.394Z,3.35
2023-01-20T07:06:58.319Z,3.62
2023-01-20T07:09:25.252Z,3.47
2023-01-20T07:11:52.230Z,3.10
2023-01-20T07:14:19.126Z,2.91
2023-01-20T07:16:46.352Z,2.59
2023-01-20T07:19:13.539Z,3.01
2023-01-20T07:21:40.442Z,2.95
2023-01-20T07:24:09.069Z,2.84
2023-01-20T07:26:36.740Z,2.72
2023-01-20T07:29:03.826Z,2.54
2023-01-20T07:31:34.606Z,2.85
2023-01-20T07:34:01.761Z,3.15
2023-01-20T07:36:28.818Z,3.01
2023-01-20T07:38:55.753Z,2.80
2023-01-20T07:41:23.033Z,2.52
2023-01-20T07:43:51.201Z,2.33
2023-01-20T07:46:18.091Z,2.64
2023-01-20T07:48:45.104Z,2.64
2023-01-20T07:51:13.346Z,2.46
2023-01-20T07:53:51.097Z,2.47
2023-01-20T07:56:25.738Z,2.28
2023-01-20T07:58:53.820Z,2.75
2023-01-20T08:01:24.999Z,2.82
2023-01-20T08:03:51.988Z,2.45
2023-01-20T08:06:21.326Z,2.38
2023-01-20T08:08:48.801Z,2.27
2023-01-20T08:11:17.403Z,2.67
2023-01-20T08:13:44.825Z,2.95
2023-01-20T08:16:13.124Z,2.89
2023-01-20T08:18:40.357Z,2.68
2023-01-20T08:21:08.563Z,2.42
2023-01-20T08:23:36.036Z,2.50
2023-01-20T08:26:05.343Z,2.89
2023-01-20T08:28:35.504Z,3.04
2023-01-20T08:31:09.601Z,2.81
2023-01-20T08:33:36.798Z,2.54
2023-01-20T08:36:08.634Z,2.33
2023-01-20T08:38:35.790Z,2.51
2023-01-20T08:41:06.970Z,2.82
2023-01-20T08:43:33.969Z,2.83
2023-01-20T08:46:02.383Z,2.62
2023-01-20T08:48:29.494Z,2.30
2023-01-20T08:50:56.791Z,2.71
2023-01-20T08:53:23.928Z,2.79
2023-01-20T08:55:57.827Z,2.66
2023-01-20T08:58:25.625Z,2.54
2023-01-20T09:00:52.760Z,2.46
2023-01-20T09:03:20.256Z,2.70
2023-01-20T09:05:47.345Z,2.83
2023-01-20T09:08:14.683Z,2.75
2023-01-20T09:10:41.851Z,2.71
2023-01-20T09:13:08.799Z,2.78
2023-01-20T09:15:35.781Z,2.64
2023-01-20T09:18:02.702Z,2.97
2023-01-20T09:20:30.426Z,3.35
2023-01-20T09:23:01.758Z,3.34
2023-01-20T09:25:28.719Z,3.13
2023-01-20T09:27:55.767Z,2.81
2023-01-20T09:30:22.814Z,2.49
2023-01-20T09:32:53.354Z,2.42
2023-01-20T09:35:20.568Z,2.91
2023-01-20T09:38:06.178Z,3.13
2023-01-20T09:41:00.052Z,3.00
2023-01-20T09:43:55.268Z,2.74
2023-01-20T09:46:38.486Z,2.42
2023-01-20T09:49:48.156Z,2.54
2023-01-20T09:53:03.523Z,3.01
2023-01-20T09:55:50.975Z,2.84
2023-01-20T09:58:46.201Z,2.34
2023-01-20T10:01:18.666Z,2.31
2023-01-20T10:03:52.685Z,2.59
2023-01-20T10:06:44.263Z,2.56
2023-01-20T10:09:52.987Z,2.50
2023-01-20T10:12:32.354Z,2.45
2023-01-20T10:15:18.231Z,2.60
2023-01-20T10:18:05.639Z,2.80
2023-01-20T10:20:45.723Z,2.62
2023-01-20T10:23:21.852Z,2.33
2023-01-20T10:26:10.503Z,2.53
2023-01-20T10:29:07.052Z,2.87
2023-01-20T10:31:36.094Z,3.05
2023-01-20T10:34:12.842Z,2.87
2023-01-20T10:36:42.022Z,2.65
2023-01-20T10:39:18.086Z,2.99
2023-01-20T10:41:54.905Z,2.92
2023-01-20T10:44:21.853Z,2.98
2023-01-20T10:46:58.338Z,2.88
2023-01-20T10:49:48.978Z,2.68
2023-01-20T10:52:22.629Z,3.00
2023-01-20T10:55:15.703Z,3.02
2023-01-20T10:57:42.964Z,2.82
2023-01-20T11:00:30.683Z,2.74
2023-01-20T11:02:59.314Z,2.84
2023-01-20T11:05:30.319Z,2.90
2023-01-20T11:07:57.679Z,2.86
2023-01-20T11:10:29.302Z,2.82
2023-01-20T11:13:01.129Z,2.91
2023-01-20T11:15:33.359Z,2.84
2023-01-20T11:18:22.166Z,2.77
2023-01-20T11:20:58.575Z,2.89
2023-01-20T11:23:38.844Z,2.76
2023-01-20T11:26:29.283Z,2.76
2023-01-20T11:29:01.446Z,2.87
2023-01-20T11:31:37.643Z,3.09
2023-01-20T11:34:21.436Z,3.05
2023-01-20T11:36:49.375Z,2.36
2023-01-20T11:39:28.212Z,2.29
2023-01-20T11:42:27.962Z,2.13
2023-01-20T11:45:01.171Z,2.35
2023-01-20T11:47:37.037Z,2.22
2023-01-20T11:50:04.045Z,2.17
2023-01-20T11:52:32.098Z,2.20
2023-01-20T11:55:08.835Z,2.70
2023-01-20T11:57:37.633Z,2.63
2023-01-20T12:00:10.437Z,2.72
2023-01-20T12:02:41.444Z,2.23
2023-01-20T12:05:23.142Z,2.45
2023-01-20T12:07:51.639Z,2.47
2023-01-20T12:10:22.836Z,2.37
2023-01-20T12:12:57.944Z,2.42
2023-01-20T12:15:26.847Z,2.39
2023-01-20T12:18:02.424Z,3.18
2023-01-20T12:20:54.150Z,3.61
2023-01-20T12:23:46.084Z,3.37
2023-01-20T12:26:15.194Z,2.86
2023-01-20T12:29:02.233Z,2.48
2023-01-20T12:31:29.307Z,2.56
2023-01-20T12:34:10.439Z,2.58
2023-01-20T12:36:43.512Z,2.47
2023-01-20T12:39:35.788Z,2.22
2023-01-20T12:42:40.176Z,2.19
2023-01-20T12:45:25.518Z,2.70
2023-01-20T12:48:14.199Z,3.13
2023-01-20T12:50:47.497Z,2.93
2023-01-20T12:53:48.845Z,2.97
2023-01-20T12:56:25.733Z,3.62
2023-01-20T12:59:19.101Z,3.55
2023-01-20T13:01:49.829Z,3.20
2023-01-20T13:04:38.731Z,2.99
2023-01-20T13:07:22.427Z,2.71
2023-01-20T13:09:55.132Z,2.65
2023-01-20T13:12:58.174Z,3.08
2023-01-20T13:15:55.465Z,3.14
2023-01-20T13:18:31.533Z,3.14
2023-01-20T13:20:58.844Z,2.83
2023-01-20T13:23:29.020Z,2.80
2023-01-20T13:25:56.139Z,3.27
2023-01-20T13:28:25.120Z,3.46
2023-01-20T13:30:54.928Z,3.40
2023-01-20T13:33:41.047Z,3.26
2023-01-20T13:36:21.966Z,3.08
2023-01-20T13:39:27.558Z,2.89
2023-01-20T13:41:54.472Z,3.53
2023-01-20T13:44:37.412Z,3.37
2023-01-20T13:47:07.839Z,3.41
2023-01-20T13:49:44.313Z,3.12
2023-01-20T13:52:12.194Z,2.82
2023-01-20T13:54:46.643Z,3.40
2023-01-20T13:57:24.432Z,3.71
2023-01-20T13:59:51.449Z,3.24
2023-01-20T14:02:23.224Z,3.20
2023-01-20T14:04:50.194Z,2.77
2023-01-20T14:07:24.048Z,3.04
2023-01-20T14:09:55.092Z,3.07
2023-01-20T14:12:22.114Z,3.13
2023-01-20T14:14:50.397Z,3.04
2023-01-20T14:17:19.102Z,2.86
2023-01-20T14:19:50.776Z,3.20
2023-01-20T14:22:24.486Z,3.60
2023-01-20T14:25:00.267Z,3.37
2023-01-20T14:27:32.444Z,3.07
2023-01-20T14:30:19.198Z,3.17
2023-01-20T14:32:46.536Z,2.91
2023-01-20T14:35:28.542Z,3.22
2023-01-20T14:37:55.443Z,3.28
2023-01-20T14:40:26.694Z,3.17
2023-01-20T14:42:57.063Z,3.02
2023-01-20T14:45:24.475Z,3.05
2023-01-20T14:47:51.479Z,3.21
2023-01-20T14:50:19.334Z,3.37
2023-01-20T14:52:46.600Z,3.48
2023-01-20T14:55:34.378Z,3.41
2023-01-20T14:58:08.523Z,2.96
2023-01-20T15:00:35.566Z,2.97
2023-01-20T15:03:15.806Z,3.03
2023-01-20T15:05:55.671Z,3.17
2023-01-20T15:08:25.964Z,3.02
2023-01-20T15:11:12.998Z,2.85
2023-01-20T15:13:41.526Z,3.06
2023-01-20T15:16:20.126Z,3.16
2023-01-20T15:19:16.593Z,3.19
2023-01-20T15:21:46.214Z,2.97
2023-01-20T15:24:13.895Z,3.12
2023-01-20T15:26:40.937Z,3.18
2023-01-20T15:29:22.057Z,3.31
2023-01-20T15:31:50.467Z,2.94
2023-01-20T15:34:18.193Z,2.88
2023-01-20T15:36:45.990Z,3.05
2023-01-20T15:39:14.044Z,3.23
2023-01-20T15:41:41.164Z,3.10
2023-01-20T15:44:08.234Z,3.14
2023-01-20T15:46:35.200Z,3.20
2023-01-20T15:49:02.273Z,3.49
2023-01-20T15:51:29.252Z,3.31
2023-01-20T15:53:56.603Z,3.21
2023-01-20T15:56:29.087Z,3.00
2023-01-20T15:58:56.657Z,2.91
2023-01-20T16:01:25.489Z,3.25
2023-01-20T16:03:56.185Z,3.47
2023-01-20T16:06:27.210Z,3.54
2023-01-20T16:08:54.148Z,3.55
2023-01-20T16:11:21.025Z,3.25
2023-01-20T16:13:48.040Z,3.35
2023-01-20T16:16:22.724Z,3.88
2023-01-20T16:18:50.232Z,3.60
2023-01-20T16:21:19.720Z,3.53
2023-01-20T16:23:46.723Z,3.26
2023-01-20T16:26:20.338Z,3.58
2023-01-20T16:28:47.211Z,3.97
2023-01-20T16:31:14.344Z,3.89
2023-01-20T16:33:41.615Z,3.73
2023-01-20T16:36:19.229Z,3.46
2023-01-20T16:38:46.551Z,3.37
2023-01-20T16:41:20.003Z,3.72
2023-01-20T16:43:46.905Z,3.55
2023-01-20T16:46:18.660Z,3.81
2023-01-20T16:48:45.728Z,3.50
2023-01-20T16:51:17.108Z,3.19
2023-01-20T16:53:47.994Z,4.00
2023-01-20T16:56:19.288Z,4.04
2023-01-20T16:58:50.385Z,3.65
2023-01-20T17:01:22.265Z,3.50
2023-01-20T17:03:49.323Z,3.49
2023-01-20T17:06:18.144Z,3.75
2023-01-20T17:08:50.044Z,4.01
2023-01-20T17:11:18.595Z,3.86
2023-01-20T17:13:48.540Z,3.37
2023-01-20T17:16:15.999Z,3.73
2023-01-20T17:18:45.812Z,3.96
2023-01-20T17:21:18.015Z,3.76
2023-01-20T17:23:52.122Z,3.78
2023-01-20T17:26:19.491Z,3.66
2023-01-20T17:28:46.899Z,4.01
2023-01-20T17:31:13.937Z,4.12
2023-01-20T17:33:47.613Z,4.07
2023-01-20T17:36:16.569Z,4.01
2023-01-20T17:38:43.925Z,3.93
2023-01-20T17:41:11.475Z,3.98
2023-01-20T17:43:47.630Z,4.42
2023-01-20T17:46:19.601Z,4.39
2023-01-20T17:48:46.959Z,4.32
2023-01-20T17:51:19.509Z,4.09
2023-01-20T17:53:47.065Z,3.96
2023-01-20T17:56:14.381Z,4.29
2023-01-20T17:58:43.002Z,4.50
2023-01-20T18:01:11.117Z,4.40
2023-01-20T18:03:42.919Z,4.14
2023-01-20T18:06:11.525Z,4.08
2023-01-20T18:08:38.640Z,4.43
2023-01-20T18:11:06.855Z,4.35
2023-01-20T18:13:35.126Z,4.34
2023-01-20T18:16:07.416Z,4.49
2023-01-20T18:18:34.468Z,4.27
2023-01-20T18:21:15.409Z,4.20
2023-01-20T18:23:42.762Z,4.76
2023-01-20T18:26:15.452Z,4.84
2023-01-20T18:28:42.807Z,4.61
2023-01-20T18:31:20.690Z,4.41
2023-01-20T18:33:53.093Z,4.58
2023-01-20T18:36:37.769Z,4.90
2023-01-20T18:39:24.349Z,5.03
2023-01-20T18:41:51.717Z,5.11
2023-01-20T18:44:41.692Z,4.88
2023-01-20T18:47:08.594Z,4.78
2023-01-20T18:49:35.584Z,4.61
2023-01-20T18:52:02.750Z,5.00
2023-01-20T18:54:33.147Z,5.30
2023-01-20T18:57:00.132Z,5.45
2023-01-20T18:59:27.549Z,5.36
2023-01-20T19:01:56.543Z,5.16
2023-01-20T19:04:23.482Z,5.36
2023-01-20T19:06:50.931Z,5.72
2023-01-20T19:09:19.829Z,5.77
2023-01-20T19:11:46.875Z,5.65
2023-01-20T19:14:14.760Z,5.49
2023-01-20T19:16:49.574Z,5.41
2023-01-20T19:19:18.051Z,6.00
2023-01-20T19:21:45.437Z,6.35
2023-01-20T19:24:20.181Z,6.23
2023-01-20T19:26:47.385Z,6.01
2023-01-20T19:29:16.069Z,5.73
2023-01-20T19:31:43.098Z,5.59
2023-01-20T19:34:10.589Z,6.15
2023-01-20T19:36:37.640Z,6.38
2023-01-20T19:39:05.387Z,6.08
2023-01-20T19:41:34.607Z,5.81
2023-01-20T19:44:04.656Z,5.59
2023-01-20T19:46:33.258Z,5.38
2023-01-20T19:49:02.715Z,5.79
2023-01-20T19:51:31.868Z,6.17
2023-01-20T19:54:00.361Z,6.14
2023-01-20T19:56:29.054Z,5.97
2023-01-20T19:59:02.186Z,5.70
2023-01-20T20:01:32.146Z,5.58
2023-01-20T20:04:00.161Z,6.01
2023-01-20T20:06:32.776Z,6.46
2023-01-20T20:09:04.969Z,6.47
2023-01-20T20:11:32.085Z,6.27
2023-01-20T20:14:02.999Z,5.99
2023-01-20T20:16:31.437Z,5.98
2023-01-20T20:18:59.579Z,6.50
2023-01-20T20:21:27.365Z,6.63
2023-01-20T20:23:58.842Z,6.52
2023-01-20T20:26:28.881Z,6.31
2023-01-20T20:28:56.504Z,5.97
2023-01-20T20:31:29.567Z,6.28
2023-01-20T20:34:00.421Z,6.68
2023-01-20T20:36:33.040Z,6.70
2023-01-20T20:39:01.352Z,6.38
2023-01-20T20:41:31.174Z,6.18
2023-01-20T20:43:59.380Z,6.04
2023-01-20T20:46:27.582Z,6.50
2023-01-20T20:48:55.930Z,6.92
2023-01-20T20:51:24.706Z,6.79
2023-01-20T20:53:55.943Z,6.65
2023-01-20T20:56:23.168Z,6.42
2023-01-20T20:59:00.979Z,6.47
2023-01-20T21:01:30.459Z,6.88
2023-01-20T21:03:58.012Z,6.85
2023-01-20T21:06:25.532Z,6.54
2023-01-20T21:08:52.953Z,6.27
2023-01-20T21:11:20.660Z,6.05
2023-01-20T21:13:49.670Z,6.37
2023-01-20T21:16:18.045Z,6.79
2023-01-20T21:18:45.121Z,6.71
2023-01-20T21:21:13.088Z,6.29
2023-01-20T21:23:43.426Z,6.10
2023-01-20T21:26:12.771Z,5.82
2023-01-20T21:28:40.839Z,5.74
2023-01-20T21:31:14.966Z,6.06
2023-01-20T21:33:42.515Z,6.25
2023-01-20T21:36:10.162Z,6.18
2023-01-20T21:38:37.829Z,5.90
2023-01-20T21:43:36.281Z,5.73
2023-01-20T21:46:03.290Z,5.96
2023-01-20T21:48:52.327Z,6.02
2023-01-20T21:51:38.216Z,5.84
2023-01-20T21:54:05.212Z,5.64
2023-01-20T21:56:32.208Z,5.94
2023-01-20T21:58:59.193Z,6.36
2023-01-20T22:01:26.151Z,6.27
2023-01-20T22:03:53.144Z,6.07
2023-01-20T22:06:20.206Z,5.69
2023-01-20T22:08:47.238Z,5.47
2023-01-20T22:11:14.135Z,5.78
2023-01-20T22:13:41.131Z,6.04
2023-01-20T22:16:08.490Z,6.00
2023-01-20T22:18:35.546Z,5.80
2023-01-20T22:21:03.704Z,5.55
2023-01-20T22:23:34.682Z,5.70
2023-01-20T22:26:01.815Z,6.02
2023-01-20T22:28:38.925Z,6.02
2023-01-20T22:31:06.764Z,5.71
2023-01-20T22:33:34.328Z,5.39
2023-01-20T22:36:01.369Z,5.29
2023-01-20T22:38:28.394Z,5.73
2023-01-20T22:40:55.441Z,5.91
2023-01-20T22:43:22.295Z,5.78
2023-01-20T22:45:49.249Z,5.53
2023-01-20T22:48:16.159Z,5.24
2023-01-20T22:50:43.142Z,5.29
2023-01-20T22:53:10.268Z,5.72
2023-01-20T22:55:37.987Z,5.70
2023-01-20T22:58:08.566Z,5.49
2023-01-20T23:00:35.386Z,5.19
2023-01-20T23:03:02.349Z,5.01
2023-01-20T23:05:29.499Z,5.37
2023-01-20T23:07:56.541Z,5.66
2023-01-20T23:10:42.333Z,5.56
2023-01-20T23:13:09.310Z,5.30
2023-01-20T23:15:36.317Z,5.04
2023-01-20T23:18:03.335Z,5.25
2023-01-20T23:20:30.292Z,5.57
2023-01-20T23:22:57.127Z,5.54
2023-01-20T23:25:24.859Z,5.36
2023-01-20T23:27:51.823Z,5.12
2023-01-20T23:30:18.755Z,5.29
2023-01-20T23:32:45.957Z,5.67
2023-01-20T23:35:12.867Z,5.66
2023-01-20T23:37:39.877Z,5.43
2023-01-20T23:40:07.595Z,5.16
2023-01-20T23:42:34.561Z,5.15
2023-01-20T23:45:01.405Z,5.57
2023-01-20T23:47:28.446Z,5.63
2023-01-20T23:49:55.389Z,5.46
2023-01-20T23:52:23.068Z,5.22
2023-01-20T23:54:49.922Z,5.16
2023-01-20T23:57:16.838Z,5.49
2023-01-20T23:59:45.013Z,5.50
